HFX weather

Sea Fox 2 Helipad
Ciudad del Carmen, Campeche, Mexico

Public forecast

Using degrees Celsius for public forecast. Weather courtesy of forecast.io.

Closest aviation weather report (METAR) to Sea Fox 2 Helipad

Closest report is Ciudad del Carmen International Airport, 52.5 nm (97.3 km) SSE. Retrieved 2019/12/15 15:40 UTC (0 seconds ago):

MMCE 151540Z 13010KT 7SM SKC 26/23 A2997 RMK HZY

Closest aviation forecast (TAF) to Sea Fox 2 Helipad

Forecast is more than 6 hours old.

Closest forecast is Ciudad del Carmen International Airport, 52.5 nm (97.3 km) SSE. Retrieved 2019/12/15 06:22 UTC (9 hours ago):

TAF MMCE 150514Z 1506/1606 06005KT 6SM HZ SKC FM151000 13010KT 4SM HZ BKN015 TEMPO 1512/1515 1SM BR BKN005 OVC010 FM151800 13012KT P6SM SCT020 FM160300 13005KT 6SM HZ SCT015